sensor_id;sensor_type;location;lat;lon;timestamp;temperature;humidity
44731;DHT22;30458;47.448;19.032;2023-04-24T00:07:34;16.40;83.20
44731;DHT22;30458;47.448;19.032;2023-04-24T00:17:38;16.30;83.40
44731;DHT22;30458;47.448;19.032;2023-04-24T00:27:44;16.20;85.00
44731;DHT22;30458;47.448;19.032;2023-04-24T00:37:47;16.10;85.70
44731;DHT22;30458;47.448;19.032;2023-04-24T00:47:48;16.10;81.00
44731;DHT22;30458;47.448;19.032;2023-04-24T00:57:50;16.30;83.90
44731;DHT22;30458;47.448;19.032;2023-04-24T01:07:53;16.40;82.90
44731;DHT22;30458;47.448;19.032;2023-04-24T01:17:58;16.40;86.00
44731;DHT22;30458;47.448;19.032;2023-04-24T01:27:59;16.00;82.70
44731;DHT22;30458;47.448;19.032;2023-04-24T01:38:00;15.70;85.10
44731;DHT22;30458;47.448;19.032;2023-04-24T01:48:01;15.30;86.30
44731;DHT22;30458;47.448;19.032;2023-04-24T01:58:03;15.20;89.20
44731;DHT22;30458;47.448;19.032;2023-04-24T02:08:06;15.40;90.40
44731;DHT22;30458;47.448;19.032;2023-04-24T02:18:06;15.70;90.50
44731;DHT22;30458;47.448;19.032;2023-04-24T02:28:12;15.90;91.00
44731;DHT22;30458;47.448;19.032;2023-04-24T02:38:13;16.00;91.10
44731;DHT22;30458;47.448;19.032;2023-04-24T02:48:18;16.10;93.70
44731;DHT22;30458;47.448;19.032;2023-04-24T02:58:21;16.00;93.30
44731;DHT22;30458;47.448;19.032;2023-04-24T03:08:22;16.00;93.20
44731;DHT22;30458;47.448;19.032;2023-04-24T03:18:25;16.00;96.00
44731;DHT22;30458;47.448;19.032;2023-04-24T03:28:27;16.00;96.40
44731;DHT22;30458;47.448;19.032;2023-04-24T03:38:36;15.90;95.70
44731;DHT22;30458;47.448;19.032;2023-04-24T03:48:52;15.70;96.00
44731;DHT22;30458;47.448;19.032;2023-04-24T03:59:03;15.70;96.50
44731;DHT22;30458;47.448;19.032;2023-04-24T04:09:04;15.70;96.10
44731;DHT22;30458;47.448;19.032;2023-04-24T04:19:10;15.70;96.20
44731;DHT22;30458;47.448;19.032;2023-04-24T04:29:11;15.50;96.60
44731;DHT22;30458;47.448;19.032;2023-04-24T04:39:19;15.60;96.90
44731;DHT22;30458;47.448;19.032;2023-04-24T04:49:42;15.50;97.60
44731;DHT22;30458;47.448;19.032;2023-04-24T04:59:55;15.50;97.70
44731;DHT22;30458;47.448;19.032;2023-04-24T05:10:10;15.70;97.60
44731;DHT22;30458;47.448;19.032;2023-04-24T05:20:12;15.70;97.60
44731;DHT22;30458;47.448;19.032;2023-04-24T05:30:14;15.90;97.30
44731;DHT22;30458;47.448;19.032;2023-04-24T05:40:18;15.50;99.90
44731;DHT22;30458;47.448;19.032;2023-04-24T05:50:27;15.50;99.90
44731;DHT22;30458;47.448;19.032;2023-04-24T06:00:28;15.60;99.90
44731;DHT22;30458;47.448;19.032;2023-04-24T06:10:36;15.70;99.90
44731;DHT22;30458;47.448;19.032;2023-04-24T06:20:40;15.80;99.90
44731;DHT22;30458;47.448;19.032;2023-04-24T06:30:46;16.10;99.90
44731;DHT22;30458;47.448;19.032;2023-04-24T06:40:49;16.10;99.90
44731;DHT22;30458;47.448;19.032;2023-04-24T06:50:52;15.50;99.90
44731;DHT22;30458;47.448;19.032;2023-04-24T07:00:55;15.00;99.90
44731;DHT22;30458;47.448;19.032;2023-04-24T07:10:59;15.10;99.90
44731;DHT22;30458;47.448;19.032;2023-04-24T07:21:00;15.00;99.90
44731;DHT22;30458;47.448;19.032;2023-04-24T07:31:01;14.80;99.90
44731;DHT22;30458;47.448;19.032;2023-04-24T07:41:04;14.60;99.90
44731;DHT22;30458;47.448;19.032;2023-04-24T07:51:05;15.00;99.90
44731;DHT22;30458;47.448;19.032;2023-04-24T08:01:09;15.20;99.90
44731;DHT22;30458;47.448;19.032;2023-04-24T08:11:09;16.00;99.90
44731;DHT22;30458;47.448;19.032;2023-04-24T08:21:10;15.70;99.90
44731;DHT22;30458;47.448;19.032;2023-04-24T08:31:13;15.70;99.90
44731;DHT22;30458;47.448;19.032;2023-04-24T08:41:14;16.00;99.90
44731;DHT22;30458;47.448;19.032;2023-04-24T08:51:16;16.40;99.90
44731;DHT22;30458;47.448;19.032;2023-04-24T09:01:19;16.60;99.90
44731;DHT22;30458;47.448;19.032;2023-04-24T09:11:25;16.80;99.90
44731;DHT22;30458;47.448;19.032;2023-04-24T09:21:32;17.10;99.90
44731;DHT22;30458;47.448;19.032;2023-04-24T09:31:34;17.20;99.90
44731;DHT22;30458;47.448;19.032;2023-04-24T09:41:53;17.50;99.90
44731;DHT22;30458;47.448;19.032;2023-04-24T09:52:10;17.90;99.90
44731;DHT22;30458;47.448;19.032;2023-04-24T10:02:20;18.10;99.90
44731;DHT22;30458;47.448;19.032;2023-04-24T10:12:27;18.10;99.50
44731;DHT22;30458;47.448;19.032;2023-04-24T10:22:30;18.10;99.30
44731;DHT22;30458;47.448;19.032;2023-04-24T10:32:35;18.20;98.50
44731;DHT22;30458;47.448;19.032;2023-04-24T10:42:42;17.90;99.50
44731;DHT22;30458;47.448;19.032;2023-04-24T10:52:49;18.10;99.90
44731;DHT22;30458;47.448;19.032;2023-04-24T11:02:57;18.50;99.90
44731;DHT22;30458;47.448;19.032;2023-04-24T11:13:04;18.60;98.70
44731;DHT22;30458;47.448;19.032;2023-04-24T11:23:11;19.10;97.80
44731;DHT22;30458;47.448;19.032;2023-04-24T11:33:20;19.00;97.80
44731;DHT22;30458;47.448;19.032;2023-04-24T11:43:21;18.80;98.20
44731;DHT22;30458;47.448;19.032;2023-04-24T11:53:23;19.00;98.50
44731;DHT22;30458;47.448;19.032;2023-04-24T12:03:24;19.10;98.70
44731;DHT22;30458;47.448;19.032;2023-04-24T12:13:26;19.40;96.30
44731;DHT22;30458;47.448;19.032;2023-04-24T12:23:38;19.20;98.90
44731;DHT22;30458;47.448;19.032;2023-04-24T12:33:39;18.90;99.20
44731;DHT22;30458;47.448;19.032;2023-04-24T12:43:51;19.00;99.60
44731;DHT22;30458;47.448;19.032;2023-04-24T12:53:57;19.20;98.40
44731;DHT22;30458;47.448;19.032;2023-04-24T13:03:58;18.70;99.90
44731;DHT22;30458;47.448;19.032;2023-04-24T13:13:59;18.60;99.90
44731;DHT22;30458;47.448;19.032;2023-04-24T13:24:00;18.40;99.90
44731;DHT22;30458;47.448;19.032;2023-04-24T13:34:05;18.30;99.90
44731;DHT22;30458;47.448;19.032;2023-04-24T13:44:08;18.00;99.90
44731;DHT22;30458;47.448;19.032;2023-04-24T13:54:09;18.00;99.90
44731;DHT22;30458;47.448;19.032;2023-04-24T14:04:10;18.00;99.90
44731;DHT22;30458;47.448;19.032;2023-04-24T14:14:16;17.90;99.90
44731;DHT22;30458;47.448;19.032;2023-04-24T14:24:17;17.00;99.90
44731;DHT22;30458;47.448;19.032;2023-04-24T14:34:20;16.90;99.90
44731;DHT22;30458;47.448;19.032;2023-04-24T14:44:23;17.30;99.90
44731;DHT22;30458;47.448;19.032;2023-04-24T14:54:24;17.70;99.90
44731;DHT22;30458;47.448;19.032;2023-04-24T15:04:28;17.60;99.90
44731;DHT22;30458;47.448;19.032;2023-04-24T15:14:29;17.50;99.90
44731;DHT22;30458;47.448;19.032;2023-04-24T15:24:30;17.20;99.90
44731;DHT22;30458;47.448;19.032;2023-04-24T15:34:34;17.10;99.90
44731;DHT22;30458;47.448;19.032;2023-04-24T15:44:35;17.10;99.90
44731;DHT22;30458;47.448;19.032;2023-04-24T15:54:38;17.20;99.90
44731;DHT22;30458;47.448;19.032;2023-04-24T16:04:44;17.00;99.90
44731;DHT22;30458;47.448;19.032;2023-04-24T16:14:47;16.70;99.90
44731;DHT22;30458;47.448;19.032;2023-04-24T16:24:48;16.70;99.90
44731;DHT22;30458;47.448;19.032;2023-04-24T16:34:48;16.90;99.90
44731;DHT22;30458;47.448;19.032;2023-04-24T16:44:49;16.80;99.90
44731;DHT22;30458;47.448;19.032;2023-04-24T16:54:55;16.90;99.90
44731;DHT22;30458;47.448;19.032;2023-04-24T17:04:55;16.90;99.90
44731;DHT22;30458;47.448;19.032;2023-04-24T17:15:01;16.70;99.90
44731;DHT22;30458;47.448;19.032;2023-04-24T17:25:02;16.50;99.90
44731;DHT22;30458;47.448;19.032;2023-04-24T17:35:03;16.40;99.90
44731;DHT22;30458;47.448;19.032;2023-04-24T17:45:04;16.50;99.90
44731;DHT22;30458;47.448;19.032;2023-04-24T17:55:06;16.20;99.90
44731;DHT22;30458;47.448;19.032;2023-04-24T18:05:09;15.90;99.90
44731;DHT22;30458;47.448;19.032;2023-04-24T18:15:10;15.80;99.90
44731;DHT22;30458;47.448;19.032;2023-04-24T18:25:12;15.70;99.90
44731;DHT22;30458;47.448;19.032;2023-04-24T18:35:13;15.60;99.90
44731;DHT22;30458;47.448;19.032;2023-04-24T18:45:16;15.60;99.90
44731;DHT22;30458;47.448;19.032;2023-04-24T18:55:20;15.60;99.90
44731;DHT22;30458;47.448;19.032;2023-04-24T19:05:23;15.40;99.90
44731;DHT22;30458;47.448;19.032;2023-04-24T19:15:24;15.20;99.90
44731;DHT22;30458;47.448;19.032;2023-04-24T19:25:29;15.30;99.90
44731;DHT22;30458;47.448;19.032;2023-04-24T19:35:32;15.00;99.90
44731;DHT22;30458;47.448;19.032;2023-04-24T19:45:34;14.80;99.90
44731;DHT22;30458;47.448;19.032;2023-04-24T19:55:35;14.70;99.90
44731;DHT22;30458;47.448;19.032;2023-04-24T20:05:36;15.00;99.90
44731;DHT22;30458;47.448;19.032;2023-04-24T20:15:39;15.00;99.90
44731;DHT22;30458;47.448;19.032;2023-04-24T20:25:40;15.00;99.90
44731;DHT22;30458;47.448;19.032;2023-04-24T20:35:40;15.10;99.90
44731;DHT22;30458;47.448;19.032;2023-04-24T20:45:42;14.90;99.90
44731;DHT22;30458;47.448;19.032;2023-04-24T20:55:42;14.90;99.90
44731;DHT22;30458;47.448;19.032;2023-04-24T21:05:43;14.90;99.90
44731;DHT22;30458;47.448;19.032;2023-04-24T21:15:46;14.90;99.90
44731;DHT22;30458;47.448;19.032;2023-04-24T21:25:47;14.80;99.90
44731;DHT22;30458;47.448;19.032;2023-04-24T21:35:50;14.60;99.90
44731;DHT22;30458;47.448;19.032;2023-04-24T21:45:51;14.70;99.90
44731;DHT22;30458;47.448;19.032;2023-04-24T21:55:52;14.80;99.90
44731;DHT22;30458;47.448;19.032;2023-04-24T22:05:55;14.70;99.90
44731;DHT22;30458;47.448;19.032;2023-04-24T22:15:56;14.40;99.90
44731;DHT22;30458;47.448;19.032;2023-04-24T22:25:59;14.20;99.90
44731;DHT22;30458;47.448;19.032;2023-04-24T22:36:00;14.50;99.90
44731;DHT22;30458;47.448;19.032;2023-04-24T22:46:01;14.70;99.90
44731;DHT22;30458;47.448;19.032;2023-04-24T22:56:04;14.70;99.90
44731;DHT22;30458;47.448;19.032;2023-04-24T23:06:05;14.80;99.90
44731;DHT22;30458;47.448;19.032;2023-04-24T23:16:09;14.90;99.90
44731;DHT22;30458;47.448;19.032;2023-04-24T23:26:13;15.00;99.90
44731;DHT22;30458;47.448;19.032;2023-04-24T23:36:13;15.00;99.90
44731;DHT22;30458;47.448;19.032;2023-04-24T23:46:15;15.20;99.90
44731;DHT22;30458;47.448;19.032;2023-04-24T23:56:18;15.20;99.90
